createdAt,value
2019-05-22T13:00:33.053Z,25.00
2019-05-22T13:03:05.324Z,25.00
2019-05-22T13:05:39.748Z,25.00
2019-05-22T13:08:12.995Z,25.00
2019-05-22T13:10:47.012Z,24.90
2019-05-22T13:13:18.307Z,24.80
2019-05-22T13:15:50.077Z,24.80
2019-05-22T13:18:28.157Z,24.70
2019-05-22T13:21:08.127Z,24.70
2019-05-22T13:23:47.996Z,24.70
2019-05-22T13:26:27.578Z,24.80
2019-05-22T13:29:08.922Z,25.00
2019-05-22T13:31:40.633Z,25.20
2019-05-22T13:34:14.233Z,25.30
2019-05-22T13:36:47.160Z,25.40
2019-05-22T13:39:22.328Z,25.70
2019-05-22T13:41:54.241Z,25.90
2019-05-22T13:44:26.263Z,26.00
2019-05-22T13:46:58.063Z,26.20
2019-05-22T13:49:33.189Z,26.20
2019-05-22T13:52:04.464Z,25.90
2019-05-22T13:54:35.978Z,25.50
2019-05-22T13:57:12.940Z,25.00
2019-05-22T13:59:47.396Z,24.50
2019-05-22T14:02:18.470Z,24.10
2019-05-22T14:04:49.918Z,23.90
2019-05-22T14:07:21.081Z,23.80
2019-05-22T14:09:53.841Z,23.80
2019-05-22T14:12:25.490Z,23.80
2019-05-22T14:14:56.621Z,23.80
2019-05-22T14:17:27.745Z,23.90
2019-05-22T14:20:00.302Z,24.10
2019-05-22T14:22:31.429Z,24.10
2019-05-22T14:25:02.570Z,24.20
2019-05-22T14:27:33.573Z,24.30
2019-05-22T14:30:08.669Z,24.20
2019-05-22T14:32:40.719Z,24.30
2019-05-22T14:35:12.436Z,24.20
2019-05-22T14:37:43.497Z,24.20
2019-05-22T14:40:16.146Z,24.20
2019-05-22T14:42:47.360Z,24.20
2019-05-22T14:45:18.722Z,24.20
2019-05-22T14:47:49.731Z,24.30
2019-05-22T14:50:22.569Z,24.30
2019-05-22T14:52:53.494Z,24.20
2019-05-22T14:55:24.973Z,24.10
2019-05-22T14:57:56.638Z,24.00
2019-05-22T15:00:30.108Z,24.00
2019-05-22T15:03:01.725Z,23.90
2019-05-22T15:05:32.988Z,23.80
2019-05-22T15:08:04.990Z,23.80
2019-05-22T15:10:37.848Z,23.80
2019-05-22T15:13:09.968Z,23.70
2019-05-22T15:15:41.531Z,23.60
2019-05-22T15:18:12.656Z,23.60
2019-05-22T15:21:03.000Z,23.50
2019-05-22T15:23:34.338Z,23.40
2019-05-22T15:26:05.728Z,23.40
2019-05-22T15:28:36.876Z,23.30
2019-05-22T15:31:08.291Z,23.30
2019-05-22T15:33:39.720Z,23.30
2019-05-22T15:36:14.081Z,23.20
2019-05-22T15:38:46.515Z,23.10
2019-05-22T15:41:17.946Z,23.10
2019-05-22T15:43:52.991Z,23.10
2019-05-22T15:46:24.939Z,23.10
2019-05-22T15:48:57.962Z,23.10
2019-05-22T15:51:32.536Z,23.00
2019-05-22T15:54:06.632Z,23.00
2019-05-22T15:56:39.762Z,23.00
2019-05-22T15:59:13.160Z,22.90
2019-05-22T16:01:46.023Z,22.90
2019-05-22T16:04:18.694Z,22.90
2019-05-22T16:06:49.839Z,22.90
2019-05-22T16:09:23.973Z,22.90
2019-05-22T16:11:56.032Z,22.90
2019-05-22T16:14:29.771Z,22.90
2019-05-22T16:17:02.310Z,22.90
2019-05-22T16:19:35.233Z,22.90
2019-05-22T16:22:09.308Z,22.90
2019-05-22T16:24:41.440Z,22.90
2019-05-22T16:27:14.726Z,22.80
2019-05-22T16:29:47.222Z,22.80
2019-05-22T16:32:19.443Z,22.80
2019-05-22T16:34:50.454Z,22.80
2019-05-22T16:37:22.309Z,22.70
2019-05-22T16:39:54.750Z,22.70
2019-05-22T16:42:27.267Z,22.70
2019-05-22T16:44:58.101Z,22.70
2019-05-22T16:47:33.399Z,22.70
2019-05-22T16:50:06.272Z,22.70
2019-05-22T16:52:40.560Z,22.70
2019-05-22T16:55:13.407Z,22.70
2019-05-22T16:57:44.577Z,22.70
2019-05-22T17:00:17.305Z,22.70
2019-05-22T17:02:49.990Z,22.70
2019-05-22T17:05:22.926Z,22.70
2019-05-22T17:07:54.313Z,22.70
2019-05-22T17:10:25.655Z,22.70
2019-05-22T17:12:59.074Z,22.60
2019-05-22T17:15:30.217Z,22.60
2019-05-22T17:18:01.498Z,22.60
2019-05-22T17:20:32.611Z,22.60
2019-05-22T17:23:04.106Z,22.50
2019-05-22T17:25:35.646Z,22.50
2019-05-22T17:28:08.528Z,22.40
2019-05-22T17:30:40.413Z,22.40
2019-05-22T17:33:12.398Z,22.40
2019-05-22T17:35:44.925Z,22.30
2019-05-22T17:38:17.503Z,22.30
2019-05-22T17:40:48.718Z,22.30
2019-05-22T17:43:21.513Z,22.30
2019-05-22T17:45:53.451Z,22.20
2019-05-22T17:48:24.822Z,22.20
2019-05-22T17:50:55.853Z,22.20
2019-05-22T17:53:27.552Z,22.20
2019-05-22T17:55:58.774Z,22.10
2019-05-22T17:58:30.437Z,22.10
2019-05-22T18:01:02.433Z,22.00
2019-05-22T18:03:34.076Z,21.90
2019-05-22T18:06:06.328Z,21.90
2019-05-22T18:08:37.852Z,21.90
2019-05-22T18:11:09.303Z,21.80
2019-05-22T18:13:58.268Z,21.70
2019-05-22T18:16:30.902Z,21.70
2019-05-22T18:19:03.363Z,21.50
2019-05-22T18:21:34.887Z,21.50
2019-05-22T18:24:07.352Z,21.50
2019-05-22T18:26:38.496Z,21.40
2019-05-22T18:29:09.708Z,21.40
2019-05-22T18:31:40.850Z,21.30
2019-05-22T18:34:11.918Z,21.30
2019-05-22T18:36:42.947Z,21.30
2019-05-22T18:39:15.687Z,21.20
2019-05-22T18:41:46.597Z,21.20
2019-05-22T18:44:17.766Z,21.20
2019-05-22T18:46:48.891Z,21.10
2019-05-22T18:49:20.286Z,21.10
2019-05-22T18:51:51.224Z,21.00
2019-05-22T18:54:22.811Z,21.00
2019-05-22T18:56:53.742Z,20.90
2019-05-22T18:59:26.118Z,20.80
2019-05-22T19:01:57.205Z,20.80
2019-05-22T19:04:28.259Z,20.80
2019-05-22T19:06:59.304Z,20.70
2019-05-22T19:09:31.560Z,20.70
2019-05-22T19:12:02.877Z,20.60
2019-05-22T19:14:34.127Z,20.60
2019-05-22T19:17:05.288Z,20.50
2019-05-22T19:19:36.366Z,20.50
2019-05-22T19:22:07.873Z,20.40
2019-05-22T19:24:39.054Z,20.40
2019-05-22T19:27:10.439Z,20.30
2019-05-22T19:29:42.871Z,20.40
2019-05-22T19:32:14.326Z,20.30
2019-05-22T19:34:45.783Z,20.30
2019-05-22T19:37:17.221Z,20.20
2019-05-22T19:39:50.027Z,20.20
2019-05-22T19:42:22.509Z,20.20
2019-05-22T19:44:54.111Z,20.20
2019-05-22T19:47:25.618Z,20.10
2019-05-22T19:49:57.236Z,20.10
2019-05-22T19:52:40.968Z,20.00
2019-05-22T19:55:00.903Z,20.00
2019-05-22T19:57:32.838Z,20.00
2019-05-22T20:00:05.571Z,19.90
2019-05-22T20:02:37.940Z,19.90
2019-05-22T20:05:09.943Z,19.80
2019-05-22T20:07:41.400Z,19.80
2019-05-22T20:10:14.552Z,19.80
2019-05-22T20:12:46.203Z,19.70
2019-05-22T20:15:19.262Z,19.70
2019-05-22T20:17:51.397Z,19.70
2019-05-22T20:20:24.820Z,19.60
2019-05-22T20:22:57.050Z,19.70
2019-05-22T20:25:28.742Z,19.70
2019-05-22T20:28:02.589Z,19.70
2019-05-22T20:30:34.870Z,19.70
2019-05-22T20:33:06.901Z,19.70
2019-05-22T20:35:38.506Z,19.70
2019-05-22T20:38:09.814Z,19.60
2019-05-22T20:40:42.116Z,19.70
2019-05-22T20:43:13.869Z,19.60
2019-05-22T20:45:46.509Z,19.60
2019-05-22T20:48:27.135Z,19.60
2019-05-22T20:51:02.289Z,19.60
2019-05-22T20:53:52.157Z,19.60
2019-05-22T20:56:10.711Z,19.60
2019-05-22T20:58:43.543Z,19.50
2019-05-22T21:01:15.540Z,19.50
2019-05-22T21:03:46.770Z,19.50
2019-05-22T21:06:20.112Z,19.50
2019-05-22T21:08:51.170Z,19.50
2019-05-22T21:11:25.574Z,19.40
2019-05-22T21:13:56.791Z,19.40
2019-05-22T21:16:27.918Z,19.40
2019-05-22T21:18:59.575Z,19.40
2019-05-22T21:21:30.956Z,19.40
2019-05-22T21:24:11.238Z,19.30
2019-05-22T21:26:35.711Z,19.30
2019-05-22T21:29:08.538Z,19.30
2019-05-22T21:31:40.165Z,19.30
2019-05-22T21:34:11.600Z,19.30
2019-05-22T21:36:43.117Z,19.30
2019-05-22T21:42:06.395Z,19.20
2019-05-22T21:44:38.766Z,19.20
2019-05-22T21:47:10.929Z,19.20
2019-05-22T21:49:44.668Z,19.20
2019-05-22T21:52:16.642Z,19.20
2019-05-22T21:54:47.812Z,19.20
2019-05-22T21:57:19.402Z,19.20
2019-05-22T21:59:51.650Z,19.20
2019-05-22T22:02:27.145Z,19.20
2019-05-22T22:04:58.190Z,19.20
2019-05-22T22:07:31.089Z,19.20
2019-05-22T22:10:04.206Z,19.20
2019-05-22T22:12:36.872Z,19.10
2019-05-22T22:18:33.983Z,19.10
2019-05-22T22:21:06.176Z,19.00
2019-05-22T22:23:37.803Z,18.90
2019-05-22T22:26:24.667Z,18.90
2019-05-22T22:28:42.305Z,18.90
2019-05-22T22:31:15.410Z,18.90
2019-05-22T22:33:49.064Z,18.80
2019-05-22T22:36:20.312Z,18.80
2019-05-22T22:38:52.310Z,18.80
2019-05-22T22:41:23.747Z,18.80
2019-05-22T22:43:56.507Z,18.80
2019-05-22T22:46:48.152Z,18.80
2019-05-22T22:49:21.700Z,18.70
2019-05-22T22:51:53.576Z,18.70
2019-05-22T22:54:25.162Z,18.70
2019-05-22T22:56:56.624Z,18.60
2019-05-22T22:59:28.895Z,18.60
2019-05-22T23:02:02.174Z,18.70
2019-05-22T23:04:33.468Z,18.60
2019-05-22T23:07:06.147Z,18.70
2019-05-22T23:09:41.013Z,18.70
2019-05-22T23:12:14.277Z,18.70
2019-05-22T23:14:48.562Z,18.70
2019-05-22T23:17:20.911Z,18.70
2019-05-22T23:19:52.212Z,18.70
2019-05-22T23:22:22.891Z,18.70
2019-05-22T23:24:56.666Z,18.60
2019-05-22T23:27:29.609Z,18.50
2019-05-22T23:30:02.138Z,18.50
2019-05-22T23:32:33.774Z,18.40
2019-05-22T23:35:07.557Z,18.40
2019-05-22T23:37:40.042Z,18.40
2019-05-22T23:40:14.146Z,18.40
2019-05-22T23:42:46.056Z,18.30
2019-05-22T23:45:23.151Z,18.30
2019-05-22T23:47:57.764Z,18.20
2019-05-22T23:50:31.275Z,18.20
2019-05-22T23:53:02.728Z,18.20
2019-05-22T23:55:34.578Z,18.20
2019-05-22T23:58:07.449Z,18.20
